Terminal Aerodrome Forecast
Issued by NWS Atlanta, GA

Home | Current Version | Previous Version | Text Only | Print | Product List | Glossary On
Versions: 1 2 3 4 5 6 7 8 9 10 11 12 13 14 15
528
FTUS42 KFFC 261127
TAFCSG
TAF
KCSG 261127Z 2612/2712 00000KT P6SM SCT250
     FM261500 19007KT P6SM VCSH BKN045
     FM261800 20006KT 6SM -SHRA BKN025
      TEMPO 2618/2622 4SM -TSRA BKN025CB
     FM270000 28005KT P6SM VCSH SCT040
     FM270200 27008KT P6SM SCT025
     FM271000 30005KT P6SM BKN008=

USA.gov is the U.S. government's official web portal to all federal, state and local government web resources and services.